Time;durP1;ratioP1;P1;durP2;ratioP2;P2;SDS_P1;SDS_P2;PMS_P1;PMS_P2;Temp;Humidity;BMP_temperature;BMP_pressure;BME280_temperature;BME280_humidity;BME280_pressure;Samples;Min_cycle;Max_cycle;Signal;HPM_P1;HPM_P2
2022/02/13 00:01:35;;;;;;;3.43;1.80;;;;;;;;;;5009169;28;20044;-70
2022/02/13 00:04:00;;;;;;;3.37;1.80;;;;;;;;;;5031006;28;20026;-70
2022/02/13 00:06:25;;;;;;;3.30;2.30;;;;;;;;;;5031239;28;20013;-70
2022/02/13 00:08:50;;;;;;;3.97;2.00;;;;;;;;;;5029647;28;20076;-70
2022/02/13 00:11:16;;;;;;;4.70;2.53;;;;;;;;;;5029499;28;20557;-71
2022/02/13 00:13:42;;;;;;;2.67;1.93;;;;;;;;;;5029549;28;20080;-70
2022/02/13 00:16:07;;;;;;;6.53;2.60;;;;;;;;;;5013336;28;20487;-70
2022/02/13 00:18:32;;;;;;;5.37;2.43;;;;;;;;;;5016665;28;20017;-70
2022/02/13 00:20:57;;;;;;;4.67;2.63;;;;;;;;;;5034038;28;20052;-70
2022/02/13 00:23:22;;;;;;;6.30;3.63;;;;;;;;;;5021012;28;20057;-69
2022/02/13 00:25:48;;;;;;;4.70;2.87;;;;;;;;;;5015746;28;20441;-70
2022/02/13 00:28:13;;;;;;;3.90;2.40;;;;;;;;;;5030579;28;20482;-70
2022/02/13 00:30:39;;;;;;;6.60;2.80;;;;;;;;;;5032344;28;20095;-70
2022/02/13 00:33:04;;;;;;;5.63;2.70;;;;;;;;;;5034401;28;20393;-69
2022/02/13 00:35:30;;;;;;;4.87;2.83;;;;;;;;;;5033987;28;20026;-69
2022/02/13 00:37:55;;;;;;;5.17;2.97;;;;;;;;;;5034056;28;20021;-70
2022/02/13 00:40:20;;;;;;;3.83;2.73;;;;;;;;;;5025760;28;20076;-70
2022/02/13 00:42:46;;;;;;;5.27;3.00;;;;;;;;;;5033827;28;20053;-70
2022/02/13 00:45:12;;;;;;;4.93;2.97;;;;;;;;;;5031716;28;20021;-69
2022/02/13 00:47:37;;;;;;;5.10;2.97;;;;;;;;;;5034048;28;20033;-70
2022/02/13 00:50:03;;;;;;;5.27;3.40;;;;;;;;;;5033602;28;20017;-70
2022/02/13 00:52:29;;;;;;;6.33;3.47;;;;;;;;;;5018647;28;20033;-70
2022/02/13 00:54:54;;;;;;;5.00;2.70;;;;;;;;;;5033315;28;20053;-72
2022/02/13 00:57:19;;;;;;;6.80;3.73;;;;;;;;;;5014500;28;20018;-70
2022/02/13 00:59:44;;;;;;;6.90;3.23;;;;;;;;;;5044470;28;20041;-71
2022/02/13 01:02:10;;;;;;;7.03;3.43;;;;;;;;;;5031623;28;20485;-71
2022/02/13 01:04:35;;;;;;;4.93;3.17;;;;;;;;;;5027233;28;20025;-71
2022/02/13 01:07:00;;;;;;;5.00;3.37;;;;;;;;;;5033530;28;20496;-71
2022/02/13 01:09:27;;;;;;;7.77;3.40;;;;;;;;;;5032120;28;20021;-71
2022/02/13 01:11:52;;;;;;;5.33;3.40;;;;;;;;;;5033549;28;20445;-70
2022/02/13 01:14:17;;;;;;;6.60;3.33;;;;;;;;;;5028405;28;20120;-70
2022/02/13 01:16:43;;;;;;;5.40;3.40;;;;;;;;;;5032729;28;20469;-71
2022/02/13 01:19:08;;;;;;;6.30;3.13;;;;;;;;;;5024082;28;20111;-71
2022/02/13 01:21:33;;;;;;;7.90;3.10;;;;;;;;;;5025847;28;20335;-71
2022/02/13 01:23:59;;;;;;;6.90;3.17;;;;;;;;;;5020023;28;20026;-71
2022/02/13 01:26:24;;;;;;;4.13;2.60;;;;;;;;;;5027780;28;20108;-67
2022/02/13 01:28:50;;;;;;;4.73;3.93;;;;;;;;;;5031828;28;20458;-70
2022/02/13 01:31:15;;;;;;;6.77;3.50;;;;;;;;;;5022888;28;20407;-69
2022/02/13 01:33:40;;;;;;;4.87;3.30;;;;;;;;;;5021870;28;20240;-69
2022/02/13 01:36:06;;;;;;;4.90;3.23;;;;;;;;;;5032170;28;20025;-70
2022/02/13 01:38:31;;;;;;;6.70;3.67;;;;;;;;;;5032608;28;20071;-70
2022/02/13 01:40:56;;;;;;;6.50;3.63;;;;;;;;;;5013133;28;20150;-70
2022/02/13 01:43:21;;;;;;;6.83;3.80;;;;;;;;;;5018982;28;20363;-70
2022/02/13 01:45:47;;;;;;;5.97;3.77;;;;;;;;;;5033287;28;20033;-70
2022/02/13 01:48:12;;;;;;;7.07;3.63;;;;;;;;;;5032422;28;20381;-69
2022/02/13 01:50:39;;;;;;;6.73;3.50;;;;;;;;;;5032824;28;20427;-69
2022/02/13 01:53:04;;;;;;;5.70;3.37;;;;;;;;;;5017896;28;20021;-69
2022/02/13 01:55:29;;;;;;;5.77;3.70;;;;;;;;;;5032163;28;20064;-70
2022/02/13 01:57:57;;;;;;;6.57;3.90;;;;;;;;;;5027360;28;20121;-69
2022/02/13 02:00:22;;;;;;;7.50;3.50;;;;;;;;;;5032677;28;20033;-69
2022/02/13 02:02:47;;;;;;;6.13;3.77;;;;;;;;;;5033040;28;20048;-69
2022/02/13 02:05:12;;;;;;;5.13;3.30;;;;;;;;;;5031286;28;20112;-70
2022/02/13 02:07:38;;;;;;;4.83;3.40;;;;;;;;;;5032117;28;20053;-70
2022/02/13 02:10:03;;;;;;;5.67;3.33;;;;;;;;;;5019083;28;20029;-71
2022/02/13 02:12:28;;;;;;;8.50;3.87;;;;;;;;;;5013321;28;20041;-71
2022/02/13 02:14:54;;;;;;;5.27;3.73;;;;;;;;;;5026838;28;20068;-71
2022/02/13 02:17:19;;;;;;;6.93;3.67;;;;;;;;;;5032170;28;20460;-71
2022/02/13 02:19:44;;;;;;;7.07;4.13;;;;;;;;;;5031950;28;20122;-70
2022/02/13 02:22:09;;;;;;;4.97;3.30;;;;;;;;;;5030003;28;20478;-70
2022/02/13 02:24:35;;;;;;;6.87;3.87;;;;;;;;;;5014242;28;20038;-70
2022/02/13 02:27:01;;;;;;;5.83;4.00;;;;;;;;;;5021031;28;20060;-70
2022/02/13 02:29:26;;;;;;;6.57;3.93;;;;;;;;;;5045836;28;20017;-70
2022/02/13 02:31:51;;;;;;;5.23;3.40;;;;;;;;;;5015729;28;20034;-70
2022/02/13 02:34:17;;;;;;;6.27;3.57;;;;;;;;;;5030381;28;20139;-71
2022/02/13 02:36:42;;;;;;;6.80;4.13;;;;;;;;;;5032260;28;20029;-71
2022/02/13 02:39:07;;;;;;;5.80;3.40;;;;;;;;;;5028655;28;20022;-71
2022/02/13 02:41:32;;;;;;;7.40;4.00;;;;;;;;;;5013897;28;20133;-70
2022/02/13 02:43:58;;;;;;;5.83;4.10;;;;;;;;;;5032155;28;20068;-70
2022/02/13 02:46:23;;;;;;;5.87;3.63;;;;;;;;;;5030762;28;20386;-70
2022/02/13 02:48:48;;;;;;;6.50;4.10;;;;;;;;;;5030925;28;20026;-72
2022/02/13 02:51:14;;;;;;;6.30;3.67;;;;;;;;;;5031481;28;20048;-70
2022/02/13 02:53:39;;;;;;;6.67;3.63;;;;;;;;;;5015386;28;20025;-71
2022/02/13 02:56:04;;;;;;;5.03;3.20;;;;;;;;;;5031114;28;20045;-71
2022/02/13 02:58:30;;;;;;;6.00;3.53;;;;;;;;;;5031380;28;20393;-69
2022/02/13 03:00:55;;;;;;;4.70;3.70;;;;;;;;;;5027010;28;20477;-69
2022/02/13 03:03:21;;;;;;;5.37;3.50;;;;;;;;;;5031709;28;20029;-69
2022/02/13 03:05:48;;;;;;;5.30;3.47;;;;;;;;;;5047956;28;20108;-69
2022/02/13 03:08:13;;;;;;;5.80;3.30;;;;;;;;;;5032009;28;20466;-69
2022/02/13 03:10:39;;;;;;;8.93;3.70;;;;;;;;;;5017016;28;20033;-70
2022/02/13 03:13:04;;;;;;;5.60;3.80;;;;;;;;;;5032021;28;20068;-70
2022/02/13 03:15:29;;;;;;;7.13;4.10;;;;;;;;;;5032284;28;20120;-70
2022/02/13 03:17:54;;;;;;;7.80;4.07;;;;;;;;;;5029637;28;20049;-69
2022/02/13 03:20:20;;;;;;;6.00;4.07;;;;;;;;;;5031229;28;20120;-69
2022/02/13 03:22:45;;;;;;;6.33;3.43;;;;;;;;;;5022592;28;20105;-70
2022/02/13 03:25:10;;;;;;;5.27;3.00;;;;;;;;;;5015074;28;20141;-69
2022/02/13 03:27:35;;;;;;;5.00;3.60;;;;;;;;;;5030892;28;20016;-69
2022/02/13 03:30:00;;;;;;;5.73;3.50;;;;;;;;;;5030525;28;20026;-69
2022/02/13 03:32:25;;;;;;;7.20;3.73;;;;;;;;;;5032523;28;20029;-69
2022/02/13 03:34:51;;;;;;;5.63;3.77;;;;;;;;;;5035335;28;20030;-69
2022/02/13 03:37:16;;;;;;;4.60;3.13;;;;;;;;;;5033397;28;20037;-69
2022/02/13 03:39:41;;;;;;;6.07;3.67;;;;;;;;;;5024518;28;20036;-68
2022/02/13 03:42:07;;;;;;;8.43;4.10;;;;;;;;;;5029428;28;20091;-69
2022/02/13 03:44:33;;;;;;;6.27;3.70;;;;;;;;;;5058135;28;20032;-69
2022/02/13 03:46:58;;;;;;;4.77;3.40;;;;;;;;;;5041869;28;20081;-69
2022/02/13 03:49:24;;;;;;;5.63;3.60;;;;;;;;;;5030183;28;20029;-69
2022/02/13 03:51:49;;;;;;;5.60;3.47;;;;;;;;;;5025444;28;20026;-69
2022/02/13 03:54:14;;;;;;;5.17;3.30;;;;;;;;;;5022599;28;20050;-70
2022/02/13 03:56:40;;;;;;;6.40;3.77;;;;;;;;;;5034333;28;20018;-70
2022/02/13 03:59:05;;;;;;;7.07;3.63;;;;;;;;;;5035430;28;20479;-69
2022/02/13 04:01:31;;;;;;;7.50;3.33;;;;;;;;;;5023428;28;20386;-69
2022/02/13 04:03:56;;;;;;;7.13;3.80;;;;;;;;;;5036136;28;20025;-69
2022/02/13 04:06:21;;;;;;;6.20;4.03;;;;;;;;;;5048884;28;20033;-69
2022/02/13 04:08:47;;;;;;;6.10;3.63;;;;;;;;;;5030381;28;20390;-68
2022/02/13 04:11:12;;;;;;;5.83;3.77;;;;;;;;;;5030913;28;20030;-68
2022/02/13 04:13:37;;;;;;;4.67;3.27;;;;;;;;;;5034790;28;20045;-68
2022/02/13 04:16:02;;;;;;;7.73;4.07;;;;;;;;;;5048013;28;20465;-68
2022/02/13 04:18:27;;;;;;;7.50;4.57;;;;;;;;;;5041167;28;20371;-69
2022/02/13 04:20:53;;;;;;;6.30;3.70;;;;;;;;;;5036372;28;20030;-69
2022/02/13 04:23:18;;;;;;;5.77;3.70;;;;;;;;;;5017257;28;20030;-70
2022/02/13 04:25:43;;;;;;;5.20;3.20;;;;;;;;;;5027832;28;20042;-70
2022/02/13 04:28:08;;;;;;;7.70;4.00;;;;;;;;;;5026908;28;20029;-69
2022/02/13 04:30:33;;;;;;;6.23;3.43;;;;;;;;;;5029645;28;20025;-70
2022/02/13 04:32:59;;;;;;;6.20;3.60;;;;;;;;;;5025266;28;20489;-70
2022/02/13 04:35:25;;;;;;;6.40;3.87;;;;;;;;;;5035114;28;20017;-69
2022/02/13 04:37:51;;;;;;;6.07;3.60;;;;;;;;;;5037992;28;20490;-69
2022/02/13 04:40:16;;;;;;;6.77;3.80;;;;;;;;;;5022735;28;20034;-69
2022/02/13 04:42:41;;;;;;;5.70;3.10;;;;;;;;;;5033397;28;20040;-69
2022/02/13 04:45:06;;;;;;;5.87;3.40;;;;;;;;;;5034644;28;20064;-70
2022/02/13 04:47:32;;;;;;;6.67;3.33;;;;;;;;;;5039090;28;20037;-69
2022/02/13 04:49:57;;;;;;;6.67;3.80;;;;;;;;;;5034204;28;20021;-69
2022/02/13 04:52:22;;;;;;;4.43;3.37;;;;;;;;;;5024991;28;20063;-69
2022/02/13 04:54:47;;;;;;;6.90;3.53;;;;;;;;;;5015328;28;20053;-69
2022/02/13 04:57:13;;;;;;;4.87;3.03;;;;;;;;;;5024103;28;20029;-69
2022/02/13 04:59:38;;;;;;;6.03;3.03;;;;;;;;;;5033262;28;20098;-69
2022/02/13 05:02:03;;;;;;;4.17;3.10;;;;;;;;;;5025858;28;20026;-69
2022/02/13 05:04:29;;;;;;;6.40;3.10;;;;;;;;;;5033082;28;20493;-70
2022/02/13 05:06:54;;;;;;;4.80;2.83;;;;;;;;;;5033895;28;20028;-70
2022/02/13 05:09:19;;;;;;;5.47;3.30;;;;;;;;;;5037519;28;20039;-70
2022/02/13 05:11:44;;;;;;;5.43;2.90;;;;;;;;;;5033810;28;20071;-69
2022/02/13 05:14:10;;;;;;;4.97;2.87;;;;;;;;;;5033958;28;20025;-70
2022/02/13 05:16:35;;;;;;;4.50;2.87;;;;;;;;;;5038866;28;20029;-70
2022/02/13 05:19:00;;;;;;;5.33;3.00;;;;;;;;;;5032919;28;20021;-70
2022/02/13 05:21:26;;;;;;;5.17;3.13;;;;;;;;;;5040052;28;20030;-70
2022/02/13 05:23:51;;;;;;;6.30;3.13;;;;;;;;;;5027773;28;20029;-69
2022/02/13 05:26:16;;;;;;;5.37;3.07;;;;;;;;;;5031050;28;20430;-70
2022/02/13 05:28:41;;;;;;;4.73;3.20;;;;;;;;;;5044796;28;20029;-69
2022/02/13 05:31:07;;;;;;;5.27;2.97;;;;;;;;;;5031403;28;20025;-70
2022/02/13 05:33:33;;;;;;;4.67;3.40;;;;;;;;;;5037976;28;20531;-69
2022/02/13 05:35:58;;;;;;;5.13;2.87;;;;;;;;;;5043534;28;20025;-70
2022/02/13 05:38:23;;;;;;;4.13;3.10;;;;;;;;;;5038431;28;20053;-70
2022/02/13 05:40:48;;;;;;;7.23;3.20;;;;;;;;;;5024455;28;20064;-70
2022/02/13 05:43:14;;;;;;;7.60;3.70;;;;;;;;;;5033233;28;20033;-70
2022/02/13 05:45:40;;;;;;;5.23;2.70;;;;;;;;;;5033568;28;20018;-70
2022/02/13 05:48:05;;;;;;;5.27;3.17;;;;;;;;;;5042997;28;20013;-70
2022/02/13 05:50:30;;;;;;;5.93;2.87;;;;;;;;;;5044185;28;20491;-69
2022/02/13 05:52:55;;;;;;;7.40;3.37;;;;;;;;;;5022111;28;20417;-69
2022/02/13 05:55:21;;;;;;;5.87;3.30;;;;;;;;;;5025835;28;20525;-69
2022/02/13 05:57:46;;;;;;;4.77;2.93;;;;;;;;;;5031668;28;20072;-70
2022/02/13 06:00:12;;;;;;;4.23;3.17;;;;;;;;;;5033245;28;20497;-69
2022/02/13 06:02:41;;;;;;;6.13;2.77;;;;;;;;;;5032617;28;20037;-69
2022/02/13 06:05:06;;;;;;;4.63;3.00;;;;;;;;;;5033013;28;20843;-70
2022/02/13 06:07:38;;;;;;;6.83;3.23;;;;;;;;;;5034643;28;20013;-70
2022/02/13 06:10:04;;;;;;;6.27;2.87;;;;;;;;;;5032307;28;20026;-70
2022/02/13 06:12:29;;;;;;;5.70;2.83;;;;;;;;;;5035283;28;20036;-70
2022/02/13 06:14:54;;;;;;;6.17;3.03;;;;;;;;;;5032731;28;20033;-70
2022/02/13 06:17:19;;;;;;;4.20;2.83;;;;;;;;;;5033317;28;20025;-70
2022/02/13 06:19:45;;;;;;;4.03;2.80;;;;;;;;;;5037616;28;20032;-70
2022/02/13 06:22:10;;;;;;;5.50;2.97;;;;;;;;;;5021882;28;20033;-70
2022/02/13 06:24:35;;;;;;;4.13;3.20;;;;;;;;;;5022891;28;20033;-70
2022/02/13 06:27:00;;;;;;;8.07;3.33;;;;;;;;;;5027018;28;20540;-71
2022/02/13 06:29:26;;;;;;;6.13;3.37;;;;;;;;;;5035510;28;20025;-71
2022/02/13 06:31:52;;;;;;;7.03;3.10;;;;;;;;;;5014898;28;20305;-71
2022/02/13 06:34:17;;;;;;;4.97;3.10;;;;;;;;;;5032747;28;20021;-70
2022/02/13 06:36:43;;;;;;;5.33;3.27;;;;;;;;;;5031088;28;20494;-71
2022/02/13 06:39:09;;;;;;;3.63;2.53;;;;;;;;;;5037238;28;20474;-70
2022/02/13 06:41:34;;;;;;;5.03;2.60;;;;;;;;;;5027953;28;20482;-71
2022/02/13 06:44:00;;;;;;;3.47;2.60;;;;;;;;;;5024695;28;20048;-70
2022/02/13 06:46:25;;;;;;;6.33;2.70;;;;;;;;;;5034711;28;20025;-70
2022/02/13 06:48:50;;;;;;;2.87;2.10;;;;;;;;;;5030019;28;20033;-70
2022/02/13 06:51:15;;;;;;;2.70;2.00;;;;;;;;;;5028834;28;20029;-70
2022/02/13 06:53:40;;;;;;;3.27;2.00;;;;;;;;;;5034760;28;20033;-70
2022/02/13 06:56:06;;;;;;;5.00;2.60;;;;;;;;;;5031193;28;20049;-70
2022/02/13 06:58:31;;;;;;;4.70;2.43;;;;;;;;;;5028007;28;20370;-70
2022/02/13 07:00:56;;;;;;;3.10;2.10;;;;;;;;;;5025962;28;20052;-70
2022/02/13 07:03:21;;;;;;;7.37;3.30;;;;;;;;;;5029661;28;20092;-68
2022/02/13 07:05:47;;;;;;;4.00;2.13;;;;;;;;;;5027776;28;20021;-69
2022/02/13 07:08:12;;;;;;;5.37;2.80;;;;;;;;;;5028644;28;20021;-69
2022/02/13 07:10:37;;;;;;;3.03;2.03;;;;;;;;;;5015137;28;20030;-70
2022/02/13 07:13:02;;;;;;;3.87;2.23;;;;;;;;;;5026836;28;20036;-69
2022/02/13 07:15:28;;;;;;;3.03;1.90;;;;;;;;;;5019942;28;20030;-69
2022/02/13 07:17:54;;;;;;;3.80;2.10;;;;;;;;;;5023654;28;20029;-69
2022/02/13 07:20:19;;;;;;;4.57;2.17;;;;;;;;;;5031752;28;20472;-69
2022/02/13 07:22:44;;;;;;;3.93;2.07;;;;;;;;;;5026284;28;20546;-69
2022/02/13 07:25:09;;;;;;;4.53;2.47;;;;;;;;;;5017431;28;20458;-69
2022/02/13 07:27:35;;;;;;;5.17;2.33;;;;;;;;;;5020686;28;20020;-69
2022/02/13 07:30:01;;;;;;;4.63;2.60;;;;;;;;;;5012905;28;20030;-62
2022/02/13 07:32:26;;;;;;;3.73;2.23;;;;;;;;;;5030227;28;20025;-61
2022/02/13 07:34:51;;;;;;;2.53;2.07;;;;;;;;;;5030471;28;20044;-61
2022/02/13 07:37:16;;;;;;;4.30;2.20;;;;;;;;;;5034254;28;20044;-62
2022/02/13 07:39:42;;;;;;;4.00;2.73;;;;;;;;;;5034995;28;20112;-63
2022/02/13 07:42:07;;;;;;;4.47;2.30;;;;;;;;;;5032993;28;20386;-63
2022/02/13 07:44:32;;;;;;;3.10;2.40;;;;;;;;;;5029632;28;20026;-62
2022/02/13 07:46:57;;;;;;;3.03;2.10;;;;;;;;;;5036756;28;20036;-62
2022/02/13 07:49:23;;;;;;;3.33;2.53;;;;;;;;;;5024366;28;20033;-63
2022/02/13 07:51:48;;;;;;;7.63;2.30;;;;;;;;;;5027751;28;20036;-62
2022/02/13 07:54:14;;;;;;;4.40;2.17;;;;;;;;;;5021475;28;20052;-63
2022/02/13 07:56:39;;;;;;;3.30;1.93;;;;;;;;;;5024245;28;20033;-63
2022/02/13 07:59:04;;;;;;;2.87;2.20;;;;;;;;;;5034320;28;20095;-63
2022/02/13 08:01:30;;;;;;;3.73;2.57;;;;;;;;;;5043492;28;20039;-63
2022/02/13 08:03:55;;;;;;;4.40;2.60;;;;;;;;;;5037655;28;20108;-62
2022/02/13 08:06:20;;;;;;;4.53;2.73;;;;;;;;;;5030446;28;20151;-62
2022/02/13 08:08:46;;;;;;;4.07;2.57;;;;;;;;;;5032251;28;20026;-62
2022/02/13 08:11:13;;;;;;;5.63;3.17;;;;;;;;;;5050830;28;20115;-62
2022/02/13 08:13:39;;;;;;;5.63;2.83;;;;;;;;;;5037470;28;20034;-62
2022/02/13 08:16:05;;;;;;;3.80;2.60;;;;;;;;;;5040368;28;20096;-63
2022/02/13 08:18:30;;;;;;;4.50;2.80;;;;;;;;;;5042416;28;20037;-62
2022/02/13 08:20:55;;;;;;;3.90;2.20;;;;;;;;;;5019980;28;20052;-62
2022/02/13 08:23:21;;;;;;;3.27;2.10;;;;;;;;;;5019669;28;20423;-62
2022/02/13 08:25:48;;;;;;;2.27;1.77;;;;;;;;;;5020078;28;20055;-66
2022/02/13 08:28:13;;;;;;;3.27;1.60;;;;;;;;;;5040465;28;20017;-61
2022/02/13 08:30:40;;;;;;;2.47;1.63;;;;;;;;;;5034653;28;20133;-62
2022/02/13 08:33:06;;;;;;;2.50;1.20;;;;;;;;;;5029338;28;20048;-61
2022/02/13 08:35:31;;;;;;;2.37;1.33;;;;;;;;;;5027985;28;20481;-62
2022/02/13 08:37:56;;;;;;;2.10;1.23;;;;;;;;;;5032178;28;20033;-61
2022/02/13 08:40:21;;;;;;;3.50;1.10;;;;;;;;;;5030688;28;20124;-60
2022/02/13 08:42:46;;;;;;;3.13;1.20;;;;;;;;;;5030938;28;20056;-60
2022/02/13 08:45:12;;;;;;;3.87;1.37;;;;;;;;;;5033575;28;20025;-60
2022/02/13 08:47:37;;;;;;;1.90;1.00;;;;;;;;;;5024278;28;20068;-60
2022/02/13 08:50:02;;;;;;;2.10;0.87;;;;;;;;;;5026214;28;20445;-60
2022/02/13 08:52:27;;;;;;;2.60;1.00;;;;;;;;;;5023581;28;20068;-60
2022/02/13 08:54:53;;;;;;;1.83;0.90;;;;;;;;;;5023132;28;20498;-60
2022/02/13 08:57:18;;;;;;;1.83;0.97;;;;;;;;;;5031319;28;20022;-60
2022/02/13 08:59:43;;;;;;;2.65;1.25;;;;;;;;;;5033992;28;20374;-60
2022/02/13 09:02:08;;;;;;;3.35;1.17;;;;;;;;;;5038790;28;20517;-60
2022/02/13 09:04:35;;;;;;;1.70;1.15;;;;;;;;;;5033700;28;20018;-61
2022/02/13 09:07:00;;;;;;;1.98;0.82;;;;;;;;;;5034837;28;20029;-60
2022/02/13 09:09:26;;;;;;;2.75;1.30;;;;;;;;;;5032957;28;20110;-61
2022/02/13 09:11:51;;;;;;;3.15;0.77;;;;;;;;;;5036309;28;20017;-61
2022/02/13 09:14:16;;;;;;;3.13;1.10;;;;;;;;;;5043047;28;20021;-60
2022/02/13 09:16:41;;;;;;;2.67;1.38;;;;;;;;;;5033572;28;20037;-62
2022/02/13 09:19:07;;;;;;;2.28;1.20;;;;;;;;;;5022364;28;20022;-61
2022/02/13 09:21:33;;;;;;;2.17;1.42;;;;;;;;;;5022779;28;20497;-61
2022/02/13 09:23:58;;;;;;;2.15;1.35;;;;;;;;;;5026058;28;20044;-61
2022/02/13 09:26:23;;;;;;;2.97;1.58;;;;;;;;;;5023494;28;20018;-61
2022/02/13 09:28:49;;;;;;;4.57;1.45;;;;;;;;;;5027100;28;20021;-61
2022/02/13 09:31:14;;;;;;;4.55;1.33;;;;;;;;;;5030168;28;20489;-61
2022/02/13 09:33:39;;;;;;;2.28;1.33;;;;;;;;;;5025063;28;20061;-61
2022/02/13 09:36:05;;;;;;;1.75;1.20;;;;;;;;;;5026405;28;20474;-61
2022/02/13 09:38:30;;;;;;;3.45;1.40;;;;;;;;;;5031008;28;20490;-61
2022/02/13 09:40:56;;;;;;;3.03;1.35;;;;;;;;;;5029339;28;20041;-60
2022/02/13 09:43:22;;;;;;;3.95;1.80;;;;;;;;;;5033249;28;20072;-61
2022/02/13 09:45:51;;;;;;;2.08;1.10;;;;;;;;;;5031887;28;20053;-61
2022/02/13 09:48:17;;;;;;;2.33;1.20;;;;;;;;;;5032407;28;20378;-61
2022/02/13 09:50:42;;;;;;;2.88;1.40;;;;;;;;;;5031157;28;20568;-61
2022/02/13 09:53:07;;;;;;;5.28;2.13;;;;;;;;;;5016333;28;20418;-61
2022/02/13 09:55:33;;;;;;;3.03;1.63;;;;;;;;;;5019586;28;20048;-61
2022/02/13 09:58:03;;;;;;;2.13;1.23;;;;;;;;;;5035370;28;20033;-61
2022/02/13 10:00:49;;;;;;;2.08;1.35;;;;;;;;;;5026128;28;20030;-62
2022/02/13 10:03:18;;;;;;;2.47;1.30;;;;;;;;;;5016444;28;20037;-62
2022/02/13 10:05:44;;;;;;;3.35;1.60;;;;;;;;;;5032476;28;20052;-61
2022/02/13 10:08:09;;;;;;;3.47;1.10;;;;;;;;;;5031962;28;20108;-61
2022/02/13 10:10:35;;;;;;;4.45;1.35;;;;;;;;;;5039660;28;20031;-61
2022/02/13 10:13:00;;;;;;;2.75;1.38;;;;;;;;;;5032694;28;20037;-61
2022/02/13 10:15:27;;;;;;;3.65;1.05;;;;;;;;;;5033079;28;20021;-61
2022/02/13 10:17:56;;;;;;;3.28;1.00;;;;;;;;;;5031600;28;20029;-61
2022/02/13 10:20:24;;;;;;;2.58;1.20;;;;;;;;;;5032189;28;20022;-60
2022/02/13 10:22:50;;;;;;;2.38;1.20;;;;;;;;;;5018333;28;20072;-60
2022/02/13 10:25:15;;;;;;;3.22;1.27;;;;;;;;;;5014060;28;20053;-61
2022/02/13 10:27:45;;;;;;;3.83;1.30;;;;;;;;;;5036254;28;20158;-60
2022/02/13 10:30:10;;;;;;;2.95;1.30;;;;;;;;;;5031957;28;20512;-60
2022/02/13 10:32:39;;;;;;;2.00;0.98;;;;;;;;;;5033692;28;20060;-61
2022/02/13 10:35:06;;;;;;;2.78;1.13;;;;;;;;;;5032190;28;20104;-62
2022/02/13 10:37:39;;;;;;;3.70;1.23;;;;;;;;;;5031872;28;20030;-61
2022/02/13 10:40:04;;;;;;;2.25;1.23;;;;;;;;;;5028753;28;20022;-61
2022/02/13 10:42:31;;;;;;;3.35;1.35;;;;;;;;;;5019908;28;20083;-61
2022/02/13 10:45:14;;;;;;;2.70;1.35;;;;;;;;;;5041333;28;20021;-60
2022/02/13 10:47:39;;;;;;;4.50;2.33;;;;;;;;;;5029398;28;20022;-61
2022/02/13 10:50:05;;;;;;;2.28;1.45;;;;;;;;;;5024548;28;20021;-62
2022/02/13 10:52:31;;;;;;;4.75;1.33;;;;;;;;;;5018557;28;20037;-62
2022/02/13 10:54:57;;;;;;;5.63;1.80;;;;;;;;;;5031819;28;20065;-62
2022/02/13 10:57:22;;;;;;;3.20;1.88;;;;;;;;;;5026131;28;20037;-62
2022/02/13 10:59:47;;;;;;;3.25;1.73;;;;;;;;;;5030747;28;20040;-61
2022/02/13 11:02:13;;;;;;;2.53;1.30;;;;;;;;;;5030247;28;20065;-60
2022/02/13 11:04:39;;;;;;;3.92;1.60;;;;;;;;;;5021116;28;20104;-59
2022/02/13 11:07:05;;;;;;;3.30;1.55;;;;;;;;;;5032178;28;20163;-61
2022/02/13 11:09:32;;;;;;;4.45;1.60;;;;;;;;;;5030737;28;20033;-62
2022/02/13 11:11:57;;;;;;;4.35;1.90;;;;;;;;;;5028464;28;20386;-62
2022/02/13 11:14:36;;;;;;;3.20;1.77;;;;;;;;;;5027885;28;20028;-62
2022/02/13 11:17:02;;;;;;;5.32;1.80;;;;;;;;;;5017984;28;20207;-62
2022/02/13 11:19:28;;;;;;;3.40;1.83;;;;;;;;;;5029082;28;20115;-61
2022/02/13 11:21:54;;;;;;;4.13;1.90;;;;;;;;;;5025329;28;20052;-61
2022/02/13 11:24:26;;;;;;;4.32;1.77;;;;;;;;;;5020764;28;20010;-61
2022/02/13 11:26:52;;;;;;;4.03;2.28;;;;;;;;;;5026075;28;20017;-63
2022/02/13 11:29:17;;;;;;;2.35;1.67;;;;;;;;;;5025783;28;20032;-62
2022/02/13 11:31:49;;;;;;;4.15;1.80;;;;;;;;;;5019255;28;20013;-62
2022/02/13 11:34:38;;;;;;;2.22;1.90;;;;;;;;;;5031248;28;20049;-61
2022/02/13 11:37:09;;;;;;;2.95;1.60;;;;;;;;;;5035011;28;20045;-62
2022/02/13 11:39:48;;;;;;;3.70;1.55;;;;;;;;;;5030617;28;20036;-61
2022/02/13 11:42:21;;;;;;;3.95;1.90;;;;;;;;;;5030317;28;20022;-61
2022/02/13 11:44:54;;;;;;;3.13;1.23;;;;;;;;;;5026310;28;20533;-61
2022/02/13 11:47:20;;;;;;;2.78;1.67;;;;;;;;;;5029704;28;20025;-61
2022/02/13 11:50:03;;;;;;;3.42;1.77;;;;;;;;;;5014664;28;20497;-61
2022/02/13 11:52:28;;;;;;;3.97;2.17;;;;;;;;;;5015540;28;20093;-63
2022/02/13 11:54:54;;;;;;;2.08;1.40;;;;;;;;;;5029510;28;20121;-62
2022/02/13 11:57:20;;;;;;;2.00;1.50;;;;;;;;;;5026636;28;20104;-63
2022/02/13 11:59:51;;;;;;;3.22;1.70;;;;;;;;;;5025532;28;20029;-62
2022/02/13 12:02:37;;;;;;;2.72;1.33;;;;;;;;;;5045004;28;20025;-64
2022/02/13 12:05:11;;;;;;;3.47;1.70;;;;;;;;;;5026682;28;20040;-63
2022/02/13 12:07:45;;;;;;;2.42;1.67;;;;;;;;;;5028543;28;20117;-62
2022/02/13 12:10:12;;;;;;;2.60;1.83;;;;;;;;;;5038644;28;20021;-62
2022/02/13 12:12:39;;;;;;;2.42;1.38;;;;;;;;;;5031589;28;20021;-62
2022/02/13 12:15:05;;;;;;;3.15;1.63;;;;;;;;;;5034272;28;20116;-61
2022/02/13 12:17:30;;;;;;;2.70;1.40;;;;;;;;;;5019780;28;20562;-62
2022/02/13 12:19:59;;;;;;;3.47;1.70;;;;;;;;;;5031395;28;20052;-62
2022/02/13 12:22:25;;;;;;;3.30;1.58;;;;;;;;;;5022862;28;20308;-62
2022/02/13 12:24:51;;;;;;;2.88;1.98;;;;;;;;;;5032326;28;20113;-63
2022/02/13 12:27:17;;;;;;;2.85;1.30;;;;;;;;;;5025730;28;20018;-63
2022/02/13 12:29:48;;;;;;;3.20;1.80;;;;;;;;;;5027825;28;20025;-61
2022/02/13 12:32:13;;;;;;;3.55;1.58;;;;;;;;;;5033729;28;20049;-61
2022/02/13 12:34:54;;;;;;;4.23;2.10;;;;;;;;;;5034618;28;20072;-61
2022/02/13 12:37:19;;;;;;;2.33;1.65;;;;;;;;;;5029556;28;20633;-63
2022/02/13 12:39:45;;;;;;;2.58;1.55;;;;;;;;;;5034014;28;20149;-63
2022/02/13 12:42:23;;;;;;;2.20;1.42;;;;;;;;;;5032484;28;20493;-63
2022/02/13 12:44:55;;;;;;;3.65;2.17;;;;;;;;;;5032880;28;20018;-62
2022/02/13 12:47:28;;;;;;;2.25;1.60;;;;;;;;;;5021589;28;20026;-63
2022/02/13 12:49:53;;;;;;;3.78;1.80;;;;;;;;;;5029331;28;20021;-62
2022/02/13 12:52:20;;;;;;;4.30;2.17;;;;;;;;;;5038666;28;20032;-62
2022/02/13 12:54:45;;;;;;;2.63;1.58;;;;;;;;;;5030079;28;20510;-63
2022/02/13 12:57:22;;;;;;;2.90;1.52;;;;;;;;;;5022262;28;20109;-63
2022/02/13 12:59:48;;;;;;;3.55;1.75;;;;;;;;;;5040570;28;20492;-62
2022/02/13 13:02:19;;;;;;;3.15;1.77;;;;;;;;;;5035432;28;20030;-63
2022/02/13 13:04:45;;;;;;;2.42;1.70;;;;;;;;;;5040100;28;20075;-62
2022/02/13 13:07:17;;;;;;;4.53;2.28;;;;;;;;;;5040819;28;20033;-63
2022/02/13 13:09:43;;;;;;;3.22;2.10;;;;;;;;;;5041146;28;20020;-63
2022/02/13 13:12:15;;;;;;;3.45;2.00;;;;;;;;;;5033940;28;20929;-63
2022/02/13 13:14:40;;;;;;;3.30;1.70;;;;;;;;;;5033382;28;20049;-62
2022/02/13 13:17:06;;;;;;;4.55;2.20;;;;;;;;;;5036776;28;20507;-62
2022/02/13 13:19:32;;;;;;;2.50;1.98;;;;;;;;;;5053324;28;20508;-62
2022/02/13 13:21:58;;;;;;;4.05;1.80;;;;;;;;;;5040366;28;20018;-62
2022/02/13 13:24:26;;;;;;;6.35;2.10;;;;;;;;;;5033120;28;20010;-61
2022/02/13 13:27:01;;;;;;;4.55;2.45;;;;;;;;;;5031909;28;20108;-61
2022/02/13 13:29:28;;;;;;;3.13;2.03;;;;;;;;;;5033974;28;20513;-62
2022/02/13 13:31:54;;;;;;;4.43;2.88;;;;;;;;;;5017901;28;20386;-62
2022/02/13 13:34:20;;;;;;;4.80;2.00;;;;;;;;;;5014251;28;20029;-62
2022/02/13 13:36:45;;;;;;;6.03;2.30;;;;;;;;;;5029419;28;20046;-62
2022/02/13 13:39:22;;;;;;;2.30;1.85;;;;;;;;;;5038447;28;20037;-61
2022/02/13 13:41:47;;;;;;;6.85;2.03;;;;;;;;;;5026209;28;20037;-61
2022/02/13 13:44:18;;;;;;;4.13;2.17;;;;;;;;;;5033291;28;20168;-61
2022/02/13 13:46:43;;;;;;;3.45;2.00;;;;;;;;;;5032663;28;20057;-61
2022/02/13 13:49:08;;;;;;;5.25;1.92;;;;;;;;;;5043036;28;20532;-61
2022/02/13 13:51:34;;;;;;;4.32;2.03;;;;;;;;;;5047568;28;20368;-61
2022/02/13 13:53:59;;;;;;;4.43;2.00;;;;;;;;;;5022105;28;20505;-61
2022/02/13 13:56:24;;;;;;;4.35;1.83;;;;;;;;;;5031332;28;20062;-61
2022/02/13 13:58:49;;;;;;;4.88;2.70;;;;;;;;;;5035013;28;20036;-61
2022/02/13 14:01:14;;;;;;;4.97;1.90;;;;;;;;;;5022676;28;20100;-62
2022/02/13 14:03:39;;;;;;;4.25;1.95;;;;;;;;;;5013433;28;20022;-62
2022/02/13 14:06:05;;;;;;;5.22;2.22;;;;;;;;;;5013460;28;20049;-62
2022/02/13 14:08:30;;;;;;;4.47;1.80;;;;;;;;;;5030972;28;20501;-62
2022/02/13 14:10:55;;;;;;;5.57;1.80;;;;;;;;;;5048091;28;20051;-62
2022/02/13 14:13:20;;;;;;;3.05;2.00;;;;;;;;;;5052971;28;20016;-62
2022/02/13 14:15:45;;;;;;;4.15;1.88;;;;;;;;;;5053060;28;20470;-62
2022/02/13 14:18:11;;;;;;;4.60;2.22;;;;;;;;;;5040042;28;20367;-62
2022/02/13 14:20:36;;;;;;;6.28;2.45;;;;;;;;;;5032781;28;20025;-62
2022/02/13 14:23:01;;;;;;;4.25;2.03;;;;;;;;;;5024148;28;20041;-62
2022/02/13 14:25:26;;;;;;;2.60;2.03;;;;;;;;;;5013003;28;20026;-63
2022/02/13 14:27:52;;;;;;;5.93;2.53;;;;;;;;;;5027941;28;20418;-62
2022/02/13 14:30:17;;;;;;;5.32;2.35;;;;;;;;;;5031864;28;20024;-61
2022/02/13 14:32:43;;;;;;;3.58;2.20;;;;;;;;;;5046896;28;20112;-61
2022/02/13 14:35:08;;;;;;;2.55;1.65;;;;;;;;;;5052632;28;20032;-61
2022/02/13 14:37:33;;;;;;;4.55;2.03;;;;;;;;;;5051470;28;20150;-61